createdAt,value
2019-02-07T00:01:27.582Z,51.40
2019-02-07T00:04:32.963Z,57.90
2019-02-07T00:07:38.177Z,55.33
2019-02-07T00:10:43.612Z,59.37
2019-02-07T00:13:48.695Z,59.93
2019-02-07T00:16:53.884Z,53.43
2019-02-07T00:19:59.117Z,57.13
2019-02-07T00:23:04.650Z,59.83
2019-02-07T00:26:10.249Z,54.77
2019-02-07T00:29:15.663Z,55.20
2019-02-07T00:32:20.919Z,55.47
2019-02-07T00:35:26.306Z,54.47
2019-02-07T00:38:31.445Z,57.47
2019-02-07T00:41:36.571Z,56.07
2019-02-07T00:44:50.543Z,51.20
2019-02-07T00:47:49.267Z,50.53
2019-02-07T00:50:54.325Z,50.33
2019-02-07T00:53:59.468Z,51.23
2019-02-07T00:57:04.662Z,58.20
2019-02-07T01:00:21.348Z,52.07
2019-02-07T01:03:26.430Z,47.30
2019-02-07T01:06:31.629Z,51.17
2019-02-07T01:09:36.761Z,52.97
2019-02-07T01:12:42.007Z,47.77
2019-02-07T01:15:47.245Z,50.03
2019-02-07T01:18:52.434Z,47.83
2019-02-07T01:21:57.560Z,51.27
2019-02-07T01:25:02.716Z,53.13
2019-02-07T01:28:08.194Z,52.33
2019-02-07T01:31:13.314Z,50.87
2019-02-07T01:34:18.429Z,51.03
2019-02-07T01:37:23.741Z,53.53
2019-02-07T01:40:28.906Z,50.07
2019-02-07T01:43:33.994Z,51.83
2019-02-07T01:46:39.099Z,51.07
2019-02-07T01:49:44.205Z,49.63
2019-02-07T01:52:49.364Z,59.30
2019-02-07T01:55:55.671Z,54.40
2019-02-07T01:59:00.745Z,57.40
2019-02-07T02:02:05.933Z,58.93
2019-02-07T02:05:12.009Z,53.33
2019-02-07T02:08:18.122Z,50.50
2019-02-07T02:11:23.237Z,51.77
2019-02-07T02:14:28.496Z,52.73
2019-02-07T02:17:33.919Z,49.27
2019-02-07T02:20:39.066Z,53.33
2019-02-07T02:23:44.169Z,51.73
2019-02-07T02:26:49.304Z,47.53
2019-02-07T02:29:54.508Z,56.93
2019-02-07T02:32:59.807Z,51.63
2019-02-07T02:36:04.957Z,50.60
2019-02-07T02:39:10.593Z,52.03
2019-02-07T02:42:15.684Z,45.43
2019-02-07T02:45:21.022Z,52.00
2019-02-07T02:48:26.209Z,53.13
2019-02-07T02:51:31.310Z,47.93
2019-02-07T02:54:42.829Z,56.57
2019-02-07T02:57:48.312Z,54.13
2019-02-07T03:01:21.768Z,54.57
2019-02-07T03:04:37.688Z,50.90
2019-02-07T03:08:10.826Z,53.73
2019-02-07T03:11:44.477Z,51.87
2019-02-07T03:15:07.317Z,48.97
2019-02-07T03:18:30.510Z,44.30
2019-02-07T03:21:45.799Z,50.43
2019-02-07T03:25:08.723Z,52.20
2019-02-07T03:28:31.714Z,50.20
2019-02-07T03:31:48.957Z,54.40
2019-02-07T03:35:12.073Z,45.07
2019-02-07T03:38:35.052Z,52.37
2019-02-07T03:41:59.018Z,55.17
2019-02-07T03:45:22.456Z,49.87
2019-02-07T03:48:46.604Z,50.37
2019-02-07T03:52:10.672Z,49.43
2019-02-07T03:55:29.007Z,49.50
2019-02-07T03:59:05.454Z,52.97
2019-02-07T04:02:32.861Z,58.03
2019-02-07T04:05:55.888Z,53.13
2019-02-07T04:09:19.989Z,54.67
2019-02-07T04:12:42.883Z,52.03
2019-02-07T04:15:59.182Z,58.63
2019-02-07T04:19:17.959Z,50.90
2019-02-07T04:22:48.812Z,54.20
2019-02-07T04:26:11.735Z,56.43
2019-02-07T04:29:51.009Z,60.67
2019-02-07T04:33:24.200Z,50.87
2019-02-07T04:36:52.856Z,49.63
2019-02-07T04:40:12.977Z,54.97
2019-02-07T04:43:37.525Z,54.00
2019-02-07T04:47:20.073Z,56.73
2019-02-07T04:50:42.536Z,50.60
2019-02-07T04:54:05.351Z,50.37
2019-02-07T04:57:26.562Z,56.00
2019-02-07T05:01:00.511Z,51.70
2019-02-07T05:04:36.713Z,52.40
2019-02-07T05:07:58.196Z,52.30
2019-02-07T05:11:16.648Z,56.83
2019-02-07T05:14:44.317Z,47.33
2019-02-07T05:18:14.628Z,50.07
2019-02-07T05:21:39.285Z,51.93
2019-02-07T05:25:03.732Z,53.43
2019-02-07T05:28:31.325Z,56.87
2019-02-07T05:31:58.733Z,56.53
2019-02-07T05:35:22.661Z,56.20
2019-02-07T05:38:47.162Z,52.13
2019-02-07T05:42:11.278Z,56.60
2019-02-07T05:45:23.324Z,54.73
2019-02-07T05:48:43.985Z,62.37
2019-02-07T05:52:11.081Z,75.50
2019-02-07T05:55:30.042Z,67.93
2019-02-07T05:58:54.118Z,54.17
2019-02-07T06:02:18.180Z,53.40
2019-02-07T06:05:51.273Z,52.43
2019-02-07T06:09:09.765Z,52.93
2019-02-07T06:12:39.808Z,49.97
2019-02-07T06:16:02.629Z,54.70
2019-02-07T06:19:17.113Z,46.73
2019-02-07T06:22:38.398Z,49.80
2019-02-07T06:26:01.324Z,52.30
2019-02-07T06:29:26.314Z,51.90
2019-02-07T06:33:03.179Z,56.53
2019-02-07T06:36:27.203Z,58.77
2019-02-07T06:39:49.811Z,48.93
2019-02-07T06:43:13.880Z,55.43
2019-02-07T06:46:37.015Z,51.37
2019-02-07T06:50:07.604Z,52.07
2019-02-07T06:53:30.510Z,54.13
2019-02-07T06:57:10.118Z,54.63
2019-02-07T07:00:28.849Z,49.93
2019-02-07T07:03:49.330Z,48.93
2019-02-07T07:07:12.799Z,55.67
2019-02-07T07:10:36.089Z,57.20
2019-02-07T07:14:00.212Z,56.27
2019-02-07T07:17:27.568Z,52.13
2019-02-07T07:20:43.076Z,53.50
2019-02-07T07:24:13.004Z,54.83
2019-02-07T07:27:49.208Z,49.17
2019-02-07T07:31:16.676Z,53.80
2019-02-07T07:34:47.322Z,51.80
2019-02-07T07:38:14.319Z,55.70
2019-02-07T07:41:44.575Z,54.70
2019-02-07T07:45:20.821Z,54.63
2019-02-07T07:48:34.810Z,54.83
2019-02-07T07:52:01.944Z,56.67
2019-02-07T07:55:32.634Z,53.70
2019-02-07T07:58:59.711Z,56.10
2019-02-07T08:02:31.744Z,56.70
2019-02-07T08:05:44.606Z,57.27
2019-02-07T08:08:58.130Z,50.23
2019-02-07T08:12:21.111Z,52.93
2019-02-07T08:16:03.392Z,60.73
2019-02-07T08:19:27.909Z,54.53
2019-02-07T08:22:53.374Z,51.77
2019-02-07T08:26:30.193Z,59.47
2019-02-07T08:29:57.388Z,57.40
2019-02-07T08:33:21.617Z,51.80
2019-02-07T08:36:39.489Z,94.57
2019-02-07T08:40:06.334Z,61.50
2019-02-07T08:43:29.554Z,53.97
2019-02-07T08:47:05.823Z,53.90
2019-02-07T08:50:31.067Z,54.90
2019-02-07T08:53:54.244Z,62.73
2019-02-07T08:57:24.793Z,56.33
2019-02-07T09:00:47.838Z,57.23
2019-02-07T09:04:18.316Z,55.00
2019-02-07T09:07:36.206Z,52.40
2019-02-07T09:11:03.212Z,58.37
2019-02-07T09:14:30.874Z,56.13
2019-02-07T09:17:44.072Z,55.27
2019-02-07T09:21:13.976Z,60.03
2019-02-07T09:24:36.887Z,58.50
2019-02-07T09:28:04.110Z,67.77
2019-02-07T09:31:36.155Z,73.63
2019-02-07T09:34:49.657Z,63.57
2019-02-07T09:38:19.956Z,71.77
2019-02-07T09:41:53.140Z,64.90
2019-02-07T09:45:16.035Z,58.97
2019-02-07T09:48:49.342Z,58.53
2019-02-07T09:52:16.407Z,56.97
2019-02-07T09:55:38.823Z,61.20
2019-02-07T09:59:03.435Z,57.40
2019-02-07T10:02:18.188Z,56.00
2019-02-07T10:05:30.464Z,59.47
2019-02-07T10:09:09.728Z,56.17
2019-02-07T10:12:39.790Z,61.93
2019-02-07T10:16:19.317Z,55.00
2019-02-07T10:19:42.042Z,51.60
2019-02-07T10:23:15.824Z,55.20
2019-02-07T10:26:46.018Z,53.57
2019-02-07T10:30:05.245Z,52.23
2019-02-07T10:33:22.060Z,51.87
2019-02-07T10:36:47.622Z,53.33
2019-02-07T10:40:24.004Z,54.27
2019-02-07T10:43:39.054Z,55.30
2019-02-07T10:47:01.846Z,47.33
2019-02-07T10:50:15.724Z,54.83
2019-02-07T10:53:58.244Z,54.60
2019-02-07T10:57:21.386Z,54.20
2019-02-07T11:00:57.955Z,61.63
2019-02-07T11:04:21.316Z,52.23
2019-02-07T11:07:44.560Z,54.07
2019-02-07T11:11:18.023Z,60.60
2019-02-07T11:14:51.383Z,54.97
2019-02-07T11:18:21.640Z,53.97
2019-02-07T11:21:44.268Z,56.10
2019-02-07T11:25:07.032Z,57.30
2019-02-07T11:28:29.680Z,58.97
2019-02-07T11:31:47.233Z,54.40
2019-02-07T11:35:14.149Z,54.57
2019-02-07T11:38:50.241Z,51.50
2019-02-07T11:42:14.417Z,56.37
2019-02-07T11:45:36.149Z,51.20
2019-02-07T11:48:52.389Z,52.83
2019-02-07T11:52:07.209Z,49.37
2019-02-07T11:55:34.246Z,54.50
2019-02-07T11:59:01.443Z,51.23
2019-02-07T12:02:25.554Z,51.43
2019-02-07T12:05:47.606Z,53.73
2019-02-07T12:09:12.473Z,44.53
2019-02-07T12:12:45.726Z,46.47
2019-02-07T12:16:15.626Z,49.77
2019-02-07T12:19:40.406Z,51.70
2019-02-07T12:23:04.092Z,56.17
2019-02-07T12:26:26.765Z,42.87
2019-02-07T12:29:42.057Z,44.77
2019-02-07T12:33:06.167Z,48.13
2019-02-07T12:36:30.369Z,46.60
2019-02-07T12:39:53.710Z,48.93
2019-02-07T12:43:31.405Z,43.60
2019-02-07T12:47:07.607Z,47.57
2019-02-07T12:50:29.413Z,46.63
2019-02-07T12:54:02.821Z,48.90
2019-02-07T12:57:26.913Z,49.00
2019-02-07T13:01:02.503Z,59.40
2019-02-07T13:04:49.558Z,47.47
2019-02-07T13:08:06.541Z,47.27
2019-02-07T13:11:30.714Z,41.33
2019-02-07T13:15:10.075Z,54.53
2019-02-07T13:18:46.217Z,52.40
2019-02-07T13:22:09.300Z,46.83
2019-02-07T13:25:29.725Z,46.00
2019-02-07T13:28:53.868Z,51.40
2019-02-07T13:32:23.920Z,64.37
2019-02-07T13:35:47.164Z,46.80
2019-02-07T13:39:16.105Z,46.87
2019-02-07T13:42:36.147Z,47.47
2019-02-07T13:45:59.156Z,50.70
2019-02-07T13:49:21.911Z,46.10
2019-02-07T13:52:44.629Z,42.73
2019-02-07T13:56:23.765Z,44.30
2019-02-07T13:59:56.848Z,41.77
2019-02-07T14:03:39.351Z,47.07
2019-02-07T14:07:02.128Z,41.13
2019-02-07T14:10:31.633Z,42.60
2019-02-07T14:14:08.162Z,47.63
2019-02-07T14:17:39.350Z,50.10
2019-02-07T14:21:02.095Z,42.57
2019-02-07T14:24:32.470Z,45.67
2019-02-07T14:27:51.428Z,47.23
2019-02-07T14:31:15.553Z,44.53
2019-02-07T14:34:38.384Z,41.00
2019-02-07T14:38:05.484Z,54.87
2019-02-07T14:41:37.115Z,45.13
2019-02-07T14:44:59.957Z,42.53
2019-02-07T14:48:05.485Z,55.03
2019-02-07T14:51:10.656Z,45.73
2019-02-07T14:54:15.784Z,54.00
2019-02-07T14:57:20.945Z,46.90
2019-02-07T15:00:27.735Z,48.43
2019-02-07T15:03:33.179Z,50.33
2019-02-07T15:06:38.382Z,46.50
2019-02-07T15:09:43.590Z,48.13
2019-02-07T15:12:49.415Z,41.67
2019-02-07T15:15:54.555Z,38.93
2019-02-07T15:19:00.128Z,41.47
2019-02-07T15:22:05.249Z,41.73
2019-02-07T15:25:10.887Z,44.63
2019-02-07T15:28:17.013Z,48.07
2019-02-07T15:31:22.201Z,49.23
2019-02-07T15:34:29.424Z,40.80
2019-02-07T15:37:34.348Z,48.63
2019-02-07T15:40:39.673Z,47.87
2019-02-07T15:43:44.814Z,51.73
2019-02-07T15:46:50.212Z,46.93
2019-02-07T15:49:57.023Z,51.53
2019-02-07T15:53:03.601Z,50.80
2019-02-07T15:56:08.770Z,51.87
2019-02-07T15:59:19.729Z,48.70
2019-02-07T16:02:35.923Z,47.77
2019-02-07T16:05:41.110Z,45.03
2019-02-07T16:08:46.320Z,49.77
2019-02-07T16:11:51.954Z,49.50
2019-02-07T16:14:57.180Z,47.47
2019-02-07T16:18:02.340Z,52.07
2019-02-07T16:21:07.469Z,46.90
2019-02-07T16:24:12.637Z,48.40
2019-02-07T16:27:17.786Z,45.43
2019-02-07T16:30:23.461Z,43.33
2019-02-07T16:33:28.615Z,46.40
2019-02-07T16:36:33.728Z,41.13
2019-02-07T16:39:38.907Z,45.63
2019-02-07T16:42:45.169Z,48.10
2019-02-07T16:45:50.349Z,46.53
2019-02-07T16:48:55.572Z,46.63
2019-02-07T16:52:01.129Z,45.97
2019-02-07T16:55:08.855Z,48.33
2019-02-07T16:58:14.015Z,45.27
2019-02-07T17:01:19.359Z,55.40
2019-02-07T17:04:25.695Z,44.33
2019-02-07T17:07:30.892Z,45.83
2019-02-07T17:10:36.647Z,45.20
2019-02-07T17:13:41.843Z,45.10
2019-02-07T17:16:46.994Z,39.63
2019-02-07T17:19:52.080Z,45.90
2019-02-07T17:22:57.764Z,47.33
2019-02-07T17:26:02.898Z,48.37
2019-02-07T17:29:08.095Z,49.17
2019-02-07T17:32:13.311Z,48.60
2019-02-07T17:35:18.861Z,45.27
2019-02-07T17:38:24.154Z,49.80
2019-02-07T17:41:29.663Z,52.17
2019-02-07T17:44:34.898Z,49.47
2019-02-07T17:47:40.136Z,45.77
2019-02-07T17:50:45.564Z,50.57
2019-02-07T17:53:50.724Z,53.87
2019-02-07T17:56:55.915Z,54.40
2019-02-07T18:00:01.224Z,48.50
2019-02-07T18:03:07.935Z,52.13
2019-02-07T18:06:13.472Z,48.27
2019-02-07T18:09:18.758Z,53.83
2019-02-07T18:12:23.884Z,54.53
2019-02-07T18:15:29.064Z,59.67
2019-02-07T18:18:34.257Z,61.03
2019-02-07T18:21:39.432Z,64.07
2019-02-07T18:24:44.508Z,63.53
2019-02-07T18:27:49.703Z,56.23
2019-02-07T18:30:54.984Z,54.10
2019-02-07T18:34:00.097Z,59.77
2019-02-07T18:37:05.440Z,62.20
2019-02-07T18:40:14.255Z,68.73
2019-02-07T18:43:19.495Z,73.20
2019-02-07T18:46:24.650Z,73.77
2019-02-07T18:49:29.954Z,61.13
2019-02-07T18:52:35.277Z,56.97
2019-02-07T18:55:40.467Z,64.40
2019-02-07T18:58:45.612Z,61.93
2019-02-07T19:01:50.858Z,61.83
2019-02-07T19:04:56.127Z,65.10
2019-02-07T19:08:01.387Z,56.67
2019-02-07T19:11:06.669Z,55.53
2019-02-07T19:14:11.895Z,61.63
2019-02-07T19:17:17.057Z,60.23
2019-02-07T19:20:22.242Z,64.57
2019-02-07T19:23:27.662Z,75.30
2019-02-07T19:26:35.670Z,71.70
2019-02-07T19:29:41.335Z,69.47
2019-02-07T19:32:46.593Z,62.40
2019-02-07T19:35:51.754Z,59.37
2019-02-07T19:38:57.382Z,60.47
2019-02-07T19:42:02.550Z,66.00
2019-02-07T19:45:08.799Z,60.70
2019-02-07T19:48:14.167Z,63.87
2019-02-07T19:51:19.415Z,62.67
2019-02-07T19:54:24.644Z,68.93
2019-02-07T19:57:29.812Z,74.37
2019-02-07T20:00:35.622Z,74.57
2019-02-07T20:03:40.941Z,72.90
2019-02-07T20:06:46.647Z,76.80
2019-02-07T20:09:51.867Z,68.17
2019-02-07T20:12:57.281Z,69.43
2019-02-07T20:16:02.556Z,67.10
2019-02-07T20:19:07.999Z,63.20
2019-02-07T20:22:20.286Z,66.70
2019-02-07T20:25:20.328Z,68.03
2019-02-07T20:28:25.759Z,69.33
2019-02-07T20:31:30.972Z,68.23
2019-02-07T20:34:36.238Z,66.20
2019-02-07T20:37:41.491Z,62.33
2019-02-07T20:40:46.774Z,72.93
2019-02-07T20:43:52.132Z,65.20
2019-02-07T20:46:57.308Z,69.40
2019-02-07T20:50:02.655Z,64.60
2019-02-07T20:53:10.494Z,74.47
2019-02-07T20:56:15.765Z,69.80
2019-02-07T20:59:21.014Z,66.80
2019-02-07T21:02:26.115Z,64.57
2019-02-07T21:05:32.409Z,64.37
2019-02-07T21:08:37.654Z,62.63
2019-02-07T21:11:42.815Z,63.80
2019-02-07T21:14:47.961Z,82.77
2019-02-07T21:17:53.075Z,93.23
2019-02-07T21:20:58.345Z,76.93
2019-02-07T21:24:03.567Z,64.13
2019-02-07T21:27:08.811Z,89.57
2019-02-07T21:30:17.223Z,70.77
2019-02-07T21:33:22.742Z,58.73
2019-02-07T21:36:27.879Z,65.03
2019-02-07T21:39:33.141Z,69.17
2019-02-07T21:42:38.570Z,66.57
2019-02-07T21:45:43.779Z,67.03
2019-02-07T21:48:48.877Z,60.03
2019-02-07T21:51:54.490Z,61.87
2019-02-07T21:54:59.675Z,62.03
2019-02-07T21:58:06.030Z,61.87
2019-02-07T22:01:11.610Z,77.13
2019-02-07T22:04:16.842Z,68.90
2019-02-07T22:07:22.460Z,87.10
2019-02-07T22:10:27.857Z,84.97
2019-02-07T22:13:32.962Z,69.60
2019-02-07T22:16:38.096Z,71.17
2019-02-07T22:19:43.393Z,127.33
2019-02-07T22:22:49.455Z,93.70
2019-02-07T22:25:54.906Z,91.50
2019-02-07T22:29:00.139Z,69.43
2019-02-07T22:32:05.394Z,70.63
2019-02-07T22:35:11.014Z,75.53
2019-02-07T22:38:16.113Z,67.87
2019-02-07T22:41:21.254Z,62.63
2019-02-07T22:44:26.414Z,75.57
2019-02-07T22:47:32.499Z,105.60
2019-02-07T22:50:38.099Z,90.60
2019-02-07T22:53:43.362Z,76.40
2019-02-07T22:56:48.474Z,81.43
2019-02-07T22:59:54.013Z,78.03
2019-02-07T23:02:59.329Z,80.83
2019-02-07T23:06:04.932Z,74.03
2019-02-07T23:09:13.877Z,77.47
2019-02-07T23:12:19.735Z,80.57
2019-02-07T23:15:24.993Z,114.53
2019-02-07T23:18:30.210Z,91.67
2019-02-07T23:21:35.419Z,95.67
2019-02-07T23:24:40.537Z,106.43
2019-02-07T23:27:45.748Z,79.10
2019-02-07T23:30:51.325Z,70.73
2019-02-07T23:33:56.503Z,95.20
2019-02-07T23:37:01.696Z,85.83
2019-02-07T23:40:08.062Z,61.90
2019-02-07T23:43:13.386Z,106.93
2019-02-07T23:46:19.729Z,120.43
2019-02-07T23:49:24.874Z,74.47
2019-02-07T23:52:29.978Z,78.47
2019-02-07T23:55:35.149Z,197.80
2019-02-07T23:58:40.343Z,102.23
